sensor_id;sensor_type;location;lat;lon;timestamp;temperature;humidity
9385;DHT22;4732;49.340;10.886;2023-10-09T08:11:17;15.90;99.90
9385;DHT22;4732;49.340;10.886;2023-10-09T08:14:01;15.90;99.90
9385;DHT22;4732;49.340;10.886;2023-10-09T08:16:28;15.90;99.90
9385;DHT22;4732;49.340;10.886;2023-10-09T08:19:04;16.00;99.90
9385;DHT22;4732;49.340;10.886;2023-10-09T08:21:48;16.10;99.90
9385;DHT22;4732;49.340;10.886;2023-10-09T08:24:33;16.30;99.90
9385;DHT22;4732;49.340;10.886;2023-10-09T08:27:07;16.30;99.90
9385;DHT22;4732;49.340;10.886;2023-10-09T08:29:51;16.50;99.90
9385;DHT22;4732;49.340;10.886;2023-10-09T08:32:37;16.40;99.90
9385;DHT22;4732;49.340;10.886;2023-10-09T08:35:06;16.60;99.90
9385;DHT22;4732;49.340;10.886;2023-10-09T08:37:51;16.70;99.90
9385;DHT22;4732;49.340;10.886;2023-10-09T08:40:19;17.10;99.90
9385;DHT22;4732;49.340;10.886;2023-10-09T08:42:53;16.90;99.90
9385;DHT22;4732;49.340;10.886;2023-10-09T08:45:22;16.90;99.90
9385;DHT22;4732;49.340;10.886;2023-10-09T08:47:54;16.80;99.90
9385;DHT22;4732;49.340;10.886;2023-10-09T08:50:20;17.00;99.90
9385;DHT22;4732;49.340;10.886;2023-10-09T08:52:48;17.10;99.90
9385;DHT22;4732;49.340;10.886;2023-10-09T09:13:28;17.30;99.90
9385;DHT22;4732;49.340;10.886;2023-10-09T09:15:57;17.90;99.90
9385;DHT22;4732;49.340;10.886;2023-10-09T09:18:23;18.00;99.90
9385;DHT22;4732;49.340;10.886;2023-10-09T09:20:51;18.00;99.90
9385;DHT22;4732;49.340;10.886;2023-10-09T09:23:19;18.00;99.90
9385;DHT22;4732;49.340;10.886;2023-10-09T09:25:50;18.10;99.90
9385;DHT22;4732;49.340;10.886;2023-10-09T09:28:29;18.10;99.90
9385;DHT22;4732;49.340;10.886;2023-10-09T09:31:22;18.10;99.90
9385;DHT22;4732;49.340;10.886;2023-10-09T09:33:56;18.10;99.90
9385;DHT22;4732;49.340;10.886;2023-10-09T09:37:06;18.00;99.90
9385;DHT22;4732;49.340;10.886;2023-10-09T09:40:04;17.90;99.90
9385;DHT22;4732;49.340;10.886;2023-10-09T09:43:04;17.80;99.90
9385;DHT22;4732;49.340;10.886;2023-10-09T09:46:04;17.70;99.90
9385;DHT22;4732;49.340;10.886;2023-10-09T09:48:38;17.90;99.90
9385;DHT22;4732;49.340;10.886;2023-10-09T09:51:19;17.60;99.90
9385;DHT22;4732;49.340;10.886;2023-10-09T09:54:08;17.50;99.90
9385;DHT22;4732;49.340;10.886;2023-10-09T09:56:36;17.50;99.90
9385;DHT22;4732;49.340;10.886;2023-10-09T09:59:05;17.40;99.90
9385;DHT22;4732;49.340;10.886;2023-10-09T10:01:49;17.50;99.90
9385;DHT22;4732;49.340;10.886;2023-10-09T10:04:38;17.50;99.90
9385;DHT22;4732;49.340;10.886;2023-10-09T10:07:06;17.60;99.90
9385;DHT22;4732;49.340;10.886;2023-10-09T10:09:39;17.70;99.90
9385;DHT22;4732;49.340;10.886;2023-10-09T10:12:05;17.80;99.90
9385;DHT22;4732;49.340;10.886;2023-10-09T10:14:54;17.90;99.90
9385;DHT22;4732;49.340;10.886;2023-10-09T10:17:24;17.90;99.90
9385;DHT22;4732;49.340;10.886;2023-10-09T10:20:12;18.00;99.90
9385;DHT22;4732;49.340;10.886;2023-10-09T10:22:40;18.00;99.90
9385;DHT22;4732;49.340;10.886;2023-10-09T10:28:30;18.10;99.90
9385;DHT22;4732;49.340;10.886;2023-10-09T10:31:10;18.20;99.90
9385;DHT22;4732;49.340;10.886;2023-10-09T10:36:28;18.40;99.90
9385;DHT22;4732;49.340;10.886;2023-10-09T10:39:08;18.50;99.90
9385;DHT22;4732;49.340;10.886;2023-10-09T10:41:54;18.60;99.90
9385;DHT22;4732;49.340;10.886;2023-10-09T10:44:31;18.70;99.90
9385;DHT22;4732;49.340;10.886;2023-10-09T10:47:12;18.60;99.90
9385;DHT22;4732;49.340;10.886;2023-10-09T10:49:58;18.50;99.90
9385;DHT22;4732;49.340;10.886;2023-10-09T10:52:27;18.50;99.90
9385;DHT22;4732;49.340;10.886;2023-10-09T10:55:16;18.40;99.90
9385;DHT22;4732;49.340;10.886;2023-10-09T10:58:15;18.40;99.90
9385;DHT22;4732;49.340;10.886;2023-10-09T11:00:55;18.40;99.90
9385;DHT22;4732;49.340;10.886;2023-10-09T11:03:31;18.30;99.90
9385;DHT22;4732;49.340;10.886;2023-10-09T11:06:27;18.40;99.90
9385;DHT22;4732;49.340;10.886;2023-10-09T11:09:09;18.40;99.90
9385;DHT22;4732;49.340;10.886;2023-10-09T11:11:48;18.40;99.90
9385;DHT22;4732;49.340;10.886;2023-10-09T11:14:25;18.40;99.90
9385;DHT22;4732;49.340;10.886;2023-10-09T11:16:51;18.30;99.90
9385;DHT22;4732;49.340;10.886;2023-10-09T11:19:23;18.30;99.90
9385;DHT22;4732;49.340;10.886;2023-10-09T11:21:59;18.30;99.90
9385;DHT22;4732;49.340;10.886;2023-10-09T11:24:49;18.70;99.90
9385;DHT22;4732;49.340;10.886;2023-10-09T11:27:35;18.30;99.90
9385;DHT22;4732;49.340;10.886;2023-10-09T11:30:05;18.40;99.90
9385;DHT22;4732;49.340;10.886;2023-10-09T11:33:05;18.50;99.90
9385;DHT22;4732;49.340;10.886;2023-10-09T11:35:33;18.60;99.90
9385;DHT22;4732;49.340;10.886;2023-10-09T11:38:00;18.70;99.90
9385;DHT22;4732;49.340;10.886;2023-10-09T11:40:33;18.70;99.90
9385;DHT22;4732;49.340;10.886;2023-10-09T11:43:27;18.70;99.90
9385;DHT22;4732;49.340;10.886;2023-10-09T11:46:20;18.80;99.90
9385;DHT22;4732;49.340;10.886;2023-10-09T11:49:06;18.80;99.90
9385;DHT22;4732;49.340;10.886;2023-10-09T11:51:44;20.50;99.90
9385;DHT22;4732;49.340;10.886;2023-10-09T11:54:33;18.80;99.90
9385;DHT22;4732;49.340;10.886;2023-10-09T11:57:02;18.90;99.90
9385;DHT22;4732;49.340;10.886;2023-10-09T11:59:29;18.70;99.90
9385;DHT22;4732;49.340;10.886;2023-10-09T12:02:07;17.30;99.90
9385;DHT22;4732;49.340;10.886;2023-10-09T12:04:37;18.70;99.90
9385;DHT22;4732;49.340;10.886;2023-10-09T12:07:12;18.60;99.90
9385;DHT22;4732;49.340;10.886;2023-10-09T12:09:40;18.70;99.90
9385;DHT22;4732;49.340;10.886;2023-10-09T12:12:08;18.50;99.90
9385;DHT22;4732;49.340;10.886;2023-10-09T12:14:36;18.40;99.90
9385;DHT22;4732;49.340;10.886;2023-10-09T12:17:05;18.40;99.90
9385;DHT22;4732;49.340;10.886;2023-10-09T12:19:36;18.30;99.90
9385;DHT22;4732;49.340;10.886;2023-10-09T12:22:06;18.30;99.90
9385;DHT22;4732;49.340;10.886;2023-10-09T12:24:33;18.30;99.90
9385;DHT22;4732;49.340;10.886;2023-10-09T12:26:59;18.30;99.90
9385;DHT22;4732;49.340;10.886;2023-10-09T12:29:25;19.70;99.90
9385;DHT22;4732;49.340;10.886;2023-10-09T12:32:03;18.30;99.90
9385;DHT22;4732;49.340;10.886;2023-10-09T12:34:29;18.10;99.90
9385;DHT22;4732;49.340;10.886;2023-10-09T12:36:59;18.40;99.90
9385;DHT22;4732;49.340;10.886;2023-10-09T12:39:27;18.50;99.90
9385;DHT22;4732;49.340;10.886;2023-10-09T12:41:59;18.60;99.90
9385;DHT22;4732;49.340;10.886;2023-10-09T12:44:35;18.80;99.90
9385;DHT22;4732;49.340;10.886;2023-10-09T12:47:13;18.90;99.90
9385;DHT22;4732;49.340;10.886;2023-10-09T12:49:39;19.10;99.90
9385;DHT22;4732;49.340;10.886;2023-10-09T12:52:28;19.20;99.90
9385;DHT22;4732;49.340;10.886;2023-10-09T12:54:58;19.40;99.90
9385;DHT22;4732;49.340;10.886;2023-10-09T12:57:23;19.50;99.90
9385;DHT22;4732;49.340;10.886;2023-10-09T12:59:53;19.60;99.90
9385;DHT22;4732;49.340;10.886;2023-10-09T13:02:27;19.60;99.90
9385;DHT22;4732;49.340;10.886;2023-10-09T13:05:01;19.50;99.90
9385;DHT22;4732;49.340;10.886;2023-10-09T13:07:29;19.60;99.90
9385;DHT22;4732;49.340;10.886;2023-10-09T13:10:36;19.50;99.90
9385;DHT22;4732;49.340;10.886;2023-10-09T13:19:21;19.70;99.90
9385;DHT22;4732;49.340;10.886;2023-10-09T13:21:56;20.30;99.90
9385;DHT22;4732;49.340;10.886;2023-10-09T13:24:31;19.70;99.90
9385;DHT22;4732;49.340;10.886;2023-10-09T13:27:15;20.20;99.90
9385;DHT22;4732;49.340;10.886;2023-10-09T13:30:07;20.40;99.90
9385;DHT22;4732;49.340;10.886;2023-10-09T13:32:50;20.20;99.90
9385;DHT22;4732;49.340;10.886;2023-10-09T13:35:32;20.70;99.90
9385;DHT22;4732;49.340;10.886;2023-10-09T13:41:24;20.90;99.90
9385;DHT22;4732;49.340;10.886;2023-10-09T13:43:54;20.90;99.90
9385;DHT22;4732;49.340;10.886;2023-10-09T13:46:22;20.80;99.90
9385;DHT22;4732;49.340;10.886;2023-10-09T13:48:49;20.90;99.90
9385;DHT22;4732;49.340;10.886;2023-10-09T13:54:09;21.10;99.90
9385;DHT22;4732;49.340;10.886;2023-10-09T13:56:49;21.40;99.90
9385;DHT22;4732;49.340;10.886;2023-10-09T13:59:29;21.60;99.90
9385;DHT22;4732;49.340;10.886;2023-10-09T14:02:19;21.40;99.90
9385;DHT22;4732;49.340;10.886;2023-10-09T14:05:06;20.00;99.90
9385;DHT22;4732;49.340;10.886;2023-10-09T14:08:02;21.20;99.90
9385;DHT22;4732;49.340;10.886;2023-10-09T14:10:41;21.00;99.90
9385;DHT22;4732;49.340;10.886;2023-10-09T14:13:14;21.10;99.90
9385;DHT22;4732;49.340;10.886;2023-10-09T14:15:39;21.10;99.90
9385;DHT22;4732;49.340;10.886;2023-10-09T14:18:07;21.10;99.90
9385;DHT22;4732;49.340;10.886;2023-10-09T14:20:34;21.10;99.90
9385;DHT22;4732;49.340;10.886;2023-10-09T14:23:01;21.10;99.90
9385;DHT22;4732;49.340;10.886;2023-10-09T14:29:31;21.00;99.90
9385;DHT22;4732;49.340;10.886;2023-10-09T14:32:11;20.90;99.90
9385;DHT22;4732;49.340;10.886;2023-10-09T14:34:49;20.70;99.90
9385;DHT22;4732;49.340;10.886;2023-10-09T14:37:35;20.70;99.90
9385;DHT22;4732;49.340;10.886;2023-10-09T14:40:05;20.70;99.90
9385;DHT22;4732;49.340;10.886;2023-10-09T14:42:40;20.70;99.90
9385;DHT22;4732;49.340;10.886;2023-10-09T14:45:10;20.60;99.90
9385;DHT22;4732;49.340;10.886;2023-10-09T14:47:41;20.50;99.90
9385;DHT22;4732;49.340;10.886;2023-10-09T14:50:07;20.50;99.90
9385;DHT22;4732;49.340;10.886;2023-10-09T14:52:39;20.40;99.90
9385;DHT22;4732;49.340;10.886;2023-10-09T14:55:05;20.30;99.90
9385;DHT22;4732;49.340;10.886;2023-10-09T15:00:44;20.20;99.90
9385;DHT22;4732;49.340;10.886;2023-10-09T15:03:24;20.10;99.90
9385;DHT22;4732;49.340;10.886;2023-10-09T15:05:53;20.10;99.90
9385;DHT22;4732;49.340;10.886;2023-10-09T15:08:21;20.00;99.90
9385;DHT22;4732;49.340;10.886;2023-10-09T15:10:51;19.90;99.90
9385;DHT22;4732;49.340;10.886;2023-10-09T15:13:22;20.00;99.90
9385;DHT22;4732;49.340;10.886;2023-10-09T15:16:01;19.90;99.90
9385;DHT22;4732;49.340;10.886;2023-10-09T15:18:32;19.80;99.90
9385;DHT22;4732;49.340;10.886;2023-10-09T15:21:05;19.70;99.90
9385;DHT22;4732;49.340;10.886;2023-10-09T15:23:34;20.20;99.90
9385;DHT22;4732;49.340;10.886;2023-10-09T15:26:04;19.60;99.90
9385;DHT22;4732;49.340;10.886;2023-10-09T15:28:32;19.50;99.90
9385;DHT22;4732;49.340;10.886;2023-10-09T15:31:07;19.50;99.90
9385;DHT22;4732;49.340;10.886;2023-10-09T15:33:36;19.40;99.90
9385;DHT22;4732;49.340;10.886;2023-10-09T15:36:12;19.40;99.90
9385;DHT22;4732;49.340;10.886;2023-10-09T15:38:38;19.30;99.90
9385;DHT22;4732;49.340;10.886;2023-10-09T15:41:04;19.30;99.90
9385;DHT22;4732;49.340;10.886;2023-10-09T15:43:31;19.20;99.90
9385;DHT22;4732;49.340;10.886;2023-10-09T15:45:58;19.20;99.90
9385;DHT22;4732;49.340;10.886;2023-10-09T15:48:24;19.10;99.90
9385;DHT22;4732;49.340;10.886;2023-10-09T15:50:50;19.20;99.90
9385;DHT22;4732;49.340;10.886;2023-10-09T15:53:17;19.10;99.90
9385;DHT22;4732;49.340;10.886;2023-10-09T15:55:46;19.10;99.90
9385;DHT22;4732;49.340;10.886;2023-10-09T15:58:12;19.10;99.90
9385;DHT22;4732;49.340;10.886;2023-10-09T16:00:37;19.00;99.90
9385;DHT22;4732;49.340;10.886;2023-10-09T16:03:04;18.90;99.90
9385;DHT22;4732;49.340;10.886;2023-10-09T16:05:33;18.90;99.90
9385;DHT22;4732;49.340;10.886;2023-10-09T16:08:01;18.80;99.90
9385;DHT22;4732;49.340;10.886;2023-10-09T16:10:28;18.80;99.90
9385;DHT22;4732;49.340;10.886;2023-10-09T16:12:56;18.70;99.90
9385;DHT22;4732;49.340;10.886;2023-10-09T16:15:23;18.70;99.90
9385;DHT22;4732;49.340;10.886;2023-10-09T16:17:50;18.60;99.90
9385;DHT22;4732;49.340;10.886;2023-10-09T16:20:25;18.60;99.90
9385;DHT22;4732;49.340;10.886;2023-10-09T16:22:51;18.70;99.90
9385;DHT22;4732;49.340;10.886;2023-10-09T16:25:17;18.60;99.90
9385;DHT22;4732;49.340;10.886;2023-10-09T16:27:46;18.60;99.90
9385;DHT22;4732;49.340;10.886;2023-10-09T16:30:21;18.50;99.90
9385;DHT22;4732;49.340;10.886;2023-10-09T16:32:48;18.40;99.90
9385;DHT22;4732;49.340;10.886;2023-10-09T16:35:14;18.40;99.90
9385;DHT22;4732;49.340;10.886;2023-10-09T16:37:42;18.30;99.90
9385;DHT22;4732;49.340;10.886;2023-10-09T16:40:17;18.30;99.90
9385;DHT22;4732;49.340;10.886;2023-10-09T16:42:46;18.30;99.90
9385;DHT22;4732;49.340;10.886;2023-10-09T16:45:12;18.30;99.90
9385;DHT22;4732;49.340;10.886;2023-10-09T16:47:49;18.20;99.90
9385;DHT22;4732;49.340;10.886;2023-10-09T16:50:24;18.00;99.90
9385;DHT22;4732;49.340;10.886;2023-10-09T16:52:54;18.00;99.90
9385;DHT22;4732;49.340;10.886;2023-10-09T16:55:20;17.80;99.90
9385;DHT22;4732;49.340;10.886;2023-10-09T16:57:46;17.80;99.90
9385;DHT22;4732;49.340;10.886;2023-10-09T17:00:16;17.60;99.90
9385;DHT22;4732;49.340;10.886;2023-10-09T17:02:57;17.60;99.90
9385;DHT22;4732;49.340;10.886;2023-10-09T17:05:25;17.50;99.90
9385;DHT22;4732;49.340;10.886;2023-10-09T17:08:01;17.50;99.90
9385;DHT22;4732;49.340;10.886;2023-10-09T17:10:26;17.60;99.90
9385;DHT22;4732;49.340;10.886;2023-10-09T17:13:00;17.50;99.90
9385;DHT22;4732;49.340;10.886;2023-10-09T17:15:26;17.40;99.90
9385;DHT22;4732;49.340;10.886;2023-10-09T17:17:58;17.30;99.90
9385;DHT22;4732;49.340;10.886;2023-10-09T17:20:26;17.20;99.90
9385;DHT22;4732;49.340;10.886;2023-10-09T17:22:53;20.70;99.90
9385;DHT22;4732;49.340;10.886;2023-10-09T17:25:18;17.10;99.90
9385;DHT22;4732;49.340;10.886;2023-10-09T17:27:44;17.10;99.90
9385;DHT22;4732;49.340;10.886;2023-10-09T17:30:11;17.00;99.90
9385;DHT22;4732;49.340;10.886;2023-10-09T17:32:44;17.00;99.90
9385;DHT22;4732;49.340;10.886;2023-10-09T17:35:11;16.90;99.90
9385;DHT22;4732;49.340;10.886;2023-10-09T17:37:37;16.40;99.90
9385;DHT22;4732;49.340;10.886;2023-10-09T17:40:07;16.80;99.90
9385;DHT22;4732;49.340;10.886;2023-10-09T17:42:34;16.80;99.90
9385;DHT22;4732;49.340;10.886;2023-10-09T17:45:00;16.90;99.90
9385;DHT22;4732;49.340;10.886;2023-10-09T17:47:33;16.90;99.90
9385;DHT22;4732;49.340;10.886;2023-10-09T17:50:03;16.90;99.90
9385;DHT22;4732;49.340;10.886;2023-10-09T17:52:38;16.90;99.90
9385;DHT22;4732;49.340;10.886;2023-10-09T17:55:04;16.80;99.90
9385;DHT22;4732;49.340;10.886;2023-10-09T17:57:34;16.80;99.90
9385;DHT22;4732;49.340;10.886;2023-10-09T18:00:03;16.80;99.90
9385;DHT22;4732;49.340;10.886;2023-10-09T18:02:29;19.00;99.90
9385;DHT22;4732;49.340;10.886;2023-10-09T18:04:56;16.90;99.90
9385;DHT22;4732;49.340;10.886;2023-10-09T18:07:22;17.90;99.90
9385;DHT22;4732;49.340;10.886;2023-10-09T18:09:48;16.50;99.90
9385;DHT22;4732;49.340;10.886;2023-10-09T18:12:21;16.80;99.90
9385;DHT22;4732;49.340;10.886;2023-10-09T18:14:48;16.70;99.90
9385;DHT22;4732;49.340;10.886;2023-10-09T18:17:19;16.70;99.90
9385;DHT22;4732;49.340;10.886;2023-10-09T18:19:49;16.70;99.90
9385;DHT22;4732;49.340;10.886;2023-10-09T18:22:17;16.70;99.90
9385;DHT22;4732;49.340;10.886;2023-10-09T18:24:43;16.60;99.90
9385;DHT22;4732;49.340;10.886;2023-10-09T18:27:09;16.60;99.90
9385;DHT22;4732;49.340;10.886;2023-10-09T18:29:39;16.50;99.90
9385;DHT22;4732;49.340;10.886;2023-10-09T18:32:05;16.40;99.90
9385;DHT22;4732;49.340;10.886;2023-10-09T18:34:31;16.40;99.90
9385;DHT22;4732;49.340;10.886;2023-10-09T18:36:56;16.40;99.90
9385;DHT22;4732;49.340;10.886;2023-10-09T18:39:22;16.40;99.90
9385;DHT22;4732;49.340;10.886;2023-10-09T18:41:50;16.50;99.90
9385;DHT22;4732;49.340;10.886;2023-10-09T18:44:22;18.00;99.90
9385;DHT22;4732;49.340;10.886;2023-10-09T18:46:48;16.40;99.90
9385;DHT22;4732;49.340;10.886;2023-10-09T18:49:15;16.30;99.90
9385;DHT22;4732;49.340;10.886;2023-10-09T18:51:41;16.30;99.90
9385;DHT22;4732;49.340;10.886;2023-10-09T18:54:09;16.20;99.90
9385;DHT22;4732;49.340;10.886;2023-10-09T18:56:36;16.20;99.90
9385;DHT22;4732;49.340;10.886;2023-10-09T18:59:02;16.20;99.90
9385;DHT22;4732;49.340;10.886;2023-10-09T19:01:35;16.10;99.90
9385;DHT22;4732;49.340;10.886;2023-10-09T19:04:01;16.10;99.90
9385;DHT22;4732;49.340;10.886;2023-10-09T19:06:26;17.80;99.90
9385;DHT22;4732;49.340;10.886;2023-10-09T19:08:54;16.20;99.90
9385;DHT22;4732;49.340;10.886;2023-10-09T19:11:21;16.00;99.90
9385;DHT22;4732;49.340;10.886;2023-10-09T19:13:49;16.00;99.90
9385;DHT22;4732;49.340;10.886;2023-10-09T19:16:15;16.00;99.90
9385;DHT22;4732;49.340;10.886;2023-10-09T19:18:40;16.00;99.90
9385;DHT22;4732;49.340;10.886;2023-10-09T19:21:07;15.90;99.90
9385;DHT22;4732;49.340;10.886;2023-10-09T19:23:40;15.90;99.90
9385;DHT22;4732;49.340;10.886;2023-10-09T19:26:07;15.80;99.90
9385;DHT22;4732;49.340;10.886;2023-10-09T19:28:34;15.80;99.90
9385;DHT22;4732;49.340;10.886;2023-10-09T19:31:08;15.80;99.90
9385;DHT22;4732;49.340;10.886;2023-10-09T19:33:40;15.80;99.90
9385;DHT22;4732;49.340;10.886;2023-10-09T19:36:10;15.80;99.90
9385;DHT22;4732;49.340;10.886;2023-10-09T19:38:38;15.80;99.90
9385;DHT22;4732;49.340;10.886;2023-10-09T19:41:04;15.50;99.90
9385;DHT22;4732;49.340;10.886;2023-10-09T19:43:30;15.60;99.90
9385;DHT22;4732;49.340;10.886;2023-10-09T19:46:06;15.60;99.90
9385;DHT22;4732;49.340;10.886;2023-10-09T19:48:32;15.50;99.90
9385;DHT22;4732;49.340;10.886;2023-10-09T19:51:05;15.60;99.90
9385;DHT22;4732;49.340;10.886;2023-10-09T19:53:32;15.70;99.90
9385;DHT22;4732;49.340;10.886;2023-10-09T19:56:01;15.50;99.90
9385;DHT22;4732;49.340;10.886;2023-10-09T19:58:27;15.50;99.90
9385;DHT22;4732;49.340;10.886;2023-10-09T20:00:58;15.50;99.90
9385;DHT22;4732;49.340;10.886;2023-10-09T20:03:23;15.40;99.90
9385;DHT22;4732;49.340;10.886;2023-10-09T20:05:49;15.40;99.90
9385;DHT22;4732;49.340;10.886;2023-10-09T20:08:15;15.40;99.90
9385;DHT22;4732;49.340;10.886;2023-10-09T20:10:44;16.10;99.90
9385;DHT22;4732;49.340;10.886;2023-10-09T20:13:10;15.40;99.90
9385;DHT22;4732;49.340;10.886;2023-10-09T20:15:37;15.40;99.90
9385;DHT22;4732;49.340;10.886;2023-10-09T20:18:07;15.30;99.90
9385;DHT22;4732;49.340;10.886;2023-10-09T20:20:42;15.20;99.90
9385;DHT22;4732;49.340;10.886;2023-10-09T20:23:11;15.30;99.90
9385;DHT22;4732;49.340;10.886;2023-10-09T20:25:39;15.20;99.90
9385;DHT22;4732;49.340;10.886;2023-10-09T20:28:04;15.20;99.90
9385;DHT22;4732;49.340;10.886;2023-10-09T20:30:34;15.20;99.90
9385;DHT22;4732;49.340;10.886;2023-10-09T20:33:00;15.10;99.90
9385;DHT22;4732;49.340;10.886;2023-10-09T20:35:25;15.00;99.90
9385;DHT22;4732;49.340;10.886;2023-10-09T20:37:54;15.10;99.90
9385;DHT22;4732;49.340;10.886;2023-10-09T20:40:27;15.00;99.90
9385;DHT22;4732;49.340;10.886;2023-10-09T20:42:55;14.90;99.90
9385;DHT22;4732;49.340;10.886;2023-10-09T20:45:22;14.80;99.90
9385;DHT22;4732;49.340;10.886;2023-10-09T20:47:49;14.80;99.90
9385;DHT22;4732;49.340;10.886;2023-10-09T20:50:21;14.70;99.90
9385;DHT22;4732;49.340;10.886;2023-10-09T20:52:48;14.70;99.90
9385;DHT22;4732;49.340;10.886;2023-10-09T20:55:15;14.60;99.90
9385;DHT22;4732;49.340;10.886;2023-10-09T20:57:55;14.70;99.90
9385;DHT22;4732;49.340;10.886;2023-10-09T21:00:22;14.60;99.90
9385;DHT22;4732;49.340;10.886;2023-10-09T21:02:49;14.50;99.90
9385;DHT22;4732;49.340;10.886;2023-10-09T21:05:17;14.50;99.90
9385;DHT22;4732;49.340;10.886;2023-10-09T21:07:44;14.50;99.90
9385;DHT22;4732;49.340;10.886;2023-10-09T21:10:10;14.50;99.90
9385;DHT22;4732;49.340;10.886;2023-10-09T21:12:42;14.60;99.90
9385;DHT22;4732;49.340;10.886;2023-10-09T21:15:11;14.50;99.90
9385;DHT22;4732;49.340;10.886;2023-10-09T21:17:41;14.50;99.90
9385;DHT22;4732;49.340;10.886;2023-10-09T21:20:07;14.50;99.90
9385;DHT22;4732;49.340;10.886;2023-10-09T21:22:47;14.50;99.90
9385;DHT22;4732;49.340;10.886;2023-10-09T21:25:20;14.50;99.90
9385;DHT22;4732;49.340;10.886;2023-10-09T21:27:46;14.50;99.90
9385;DHT22;4732;49.340;10.886;2023-10-09T21:30:12;14.60;99.90
9385;DHT22;4732;49.340;10.886;2023-10-09T21:32:44;14.50;99.90
9385;DHT22;4732;49.340;10.886;2023-10-09T21:35:14;14.40;99.90
9385;DHT22;4732;49.340;10.886;2023-10-09T21:37:48;14.30;99.90
9385;DHT22;4732;49.340;10.886;2023-10-09T21:40:18;14.30;99.90
9385;DHT22;4732;49.340;10.886;2023-10-09T21:42:57;14.30;99.90
9385;DHT22;4732;49.340;10.886;2023-10-09T21:45:24;14.30;99.90
9385;DHT22;4732;49.340;10.886;2023-10-09T21:47:51;14.20;99.90
9385;DHT22;4732;49.340;10.886;2023-10-09T21:50:23;14.20;99.90
9385;DHT22;4732;49.340;10.886;2023-10-09T21:52:51;14.20;99.90
9385;DHT22;4732;49.340;10.886;2023-10-09T21:55:17;14.10;99.90
9385;DHT22;4732;49.340;10.886;2023-10-09T21:57:42;14.10;99.90
9385;DHT22;4732;49.340;10.886;2023-10-09T22:00:09;14.00;99.90
9385;DHT22;4732;49.340;10.886;2023-10-09T22:02:40;13.90;99.90
9385;DHT22;4732;49.340;10.886;2023-10-09T22:05:06;13.90;99.90
9385;DHT22;4732;49.340;10.886;2023-10-09T22:07:38;13.80;99.90
9385;DHT22;4732;49.340;10.886;2023-10-09T22:10:04;13.80;99.90
9385;DHT22;4732;49.340;10.886;2023-10-09T22:12:31;13.80;99.90
9385;DHT22;4732;49.340;10.886;2023-10-09T22:14:57;13.80;99.90
